sensor_id;sensor_type;location;lat;lon;timestamp;P1;durP1;ratioP1;P2;durP2;ratioP2
33858;SDS011;20156;47.486;12.074;2022-08-07T00:00:31;12.93;;;11.73;;
33858;SDS011;20156;47.486;12.074;2022-08-07T00:02:57;11.35;;;10.35;;
33858;SDS011;20156;47.486;12.074;2022-08-07T00:05:23;12.57;;;11.38;;
33858;SDS011;20156;47.486;12.074;2022-08-07T00:07:49;14.05;;;12.75;;
33858;SDS011;20156;47.486;12.074;2022-08-07T00:10:15;15.18;;;13.68;;
33858;SDS011;20156;47.486;12.074;2022-08-07T00:12:41;16.23;;;14.68;;
33858;SDS011;20156;47.486;12.074;2022-08-07T00:15:09;13.40;;;12.07;;
33858;SDS011;20156;47.486;12.074;2022-08-07T00:17:35;16.02;;;13.68;;
33858;SDS011;20156;47.486;12.074;2022-08-07T00:20:00;15.43;;;14.02;;
33858;SDS011;20156;47.486;12.074;2022-08-07T00:22:26;18.40;;;14.77;;
33858;SDS011;20156;47.486;12.074;2022-08-07T00:24:51;15.05;;;13.65;;
33858;SDS011;20156;47.486;12.074;2022-08-07T00:27:17;16.63;;;14.98;;
33858;SDS011;20156;47.486;12.074;2022-08-07T00:29:42;17.17;;;15.40;;
33858;SDS011;20156;47.486;12.074;2022-08-07T00:32:08;16.90;;;15.20;;
33858;SDS011;20156;47.486;12.074;2022-08-07T00:34:35;18.05;;;15.75;;
33858;SDS011;20156;47.486;12.074;2022-08-07T00:37:01;16.83;;;15.15;;
33858;SDS011;20156;47.486;12.074;2022-08-07T00:39:26;17.40;;;15.63;;
33858;SDS011;20156;47.486;12.074;2022-08-07T00:41:53;18.00;;;16.30;;
33858;SDS011;20156;47.486;12.074;2022-08-07T00:44:21;16.55;;;14.88;;
33858;SDS011;20156;47.486;12.074;2022-08-07T00:46:47;17.88;;;16.08;;
33858;SDS011;20156;47.486;12.074;2022-08-07T00:49:13;18.13;;;16.25;;
33858;SDS011;20156;47.486;12.074;2022-08-07T00:51:39;14.15;;;12.80;;
33858;SDS011;20156;47.486;12.074;2022-08-07T00:54:04;16.35;;;14.85;;
33858;SDS011;20156;47.486;12.074;2022-08-07T00:56:30;15.70;;;14.10;;
33858;SDS011;20156;47.486;12.074;2022-08-07T00:58:56;14.55;;;13.10;;
33858;SDS011;20156;47.486;12.074;2022-08-07T01:01:21;14.32;;;12.82;;
33858;SDS011;20156;47.486;12.074;2022-08-07T01:03:48;14.02;;;12.65;;
33858;SDS011;20156;47.486;12.074;2022-08-07T01:06:15;15.70;;;14.15;;
33858;SDS011;20156;47.486;12.074;2022-08-07T01:08:42;16.13;;;14.63;;
33858;SDS011;20156;47.486;12.074;2022-08-07T01:11:08;14.77;;;13.38;;
33858;SDS011;20156;47.486;12.074;2022-08-07T01:13:34;13.90;;;12.60;;
33858;SDS011;20156;47.486;12.074;2022-08-07T01:16:00;15.77;;;14.27;;
33858;SDS011;20156;47.486;12.074;2022-08-07T01:18:26;14.35;;;12.95;;
33858;SDS011;20156;47.486;12.074;2022-08-07T01:21:02;15.18;;;13.57;;
33858;SDS011;20156;47.486;12.074;2022-08-07T01:23:29;10.25;;;9.05;;
33858;SDS011;20156;47.486;12.074;2022-08-07T01:25:56;10.18;;;9.27;;
33858;SDS011;20156;47.486;12.074;2022-08-07T01:28:22;14.48;;;13.15;;
33858;SDS011;20156;47.486;12.074;2022-08-07T01:30:48;11.07;;;10.07;;
33858;SDS011;20156;47.486;12.074;2022-08-07T01:33:14;11.88;;;10.75;;
33858;SDS011;20156;47.486;12.074;2022-08-07T01:35:40;10.68;;;9.63;;
33858;SDS011;20156;47.486;12.074;2022-08-07T01:38:06;8.43;;;7.63;;
33858;SDS011;20156;47.486;12.074;2022-08-07T01:40:32;9.00;;;8.20;;
33858;SDS011;20156;47.486;12.074;2022-08-07T01:42:58;7.90;;;7.20;;
33858;SDS011;20156;47.486;12.074;2022-08-07T01:45:24;9.30;;;8.40;;
33858;SDS011;20156;47.486;12.074;2022-08-07T01:47:50;10.73;;;9.63;;
33858;SDS011;20156;47.486;12.074;2022-08-07T01:50:16;11.13;;;10.02;;
33858;SDS011;20156;47.486;12.074;2022-08-07T01:52:42;8.25;;;7.55;;
33858;SDS011;20156;47.486;12.074;2022-08-07T01:55:11;9.82;;;8.93;;
33858;SDS011;20156;47.486;12.074;2022-08-07T01:57:40;7.57;;;6.82;;
33858;SDS011;20156;47.486;12.074;2022-08-07T02:00:07;7.78;;;7.13;;
33858;SDS011;20156;47.486;12.074;2022-08-07T02:02:41;10.02;;;9.05;;
33858;SDS011;20156;47.486;12.074;2022-08-07T02:05:11;6.47;;;5.85;;
33858;SDS011;20156;47.486;12.074;2022-08-07T02:07:42;8.80;;;8.00;;
33858;SDS011;20156;47.486;12.074;2022-08-07T02:10:14;11.35;;;10.35;;
33858;SDS011;20156;47.486;12.074;2022-08-07T02:12:42;8.18;;;7.38;;
33858;SDS011;20156;47.486;12.074;2022-08-07T02:15:09;12.68;;;11.38;;
33858;SDS011;20156;47.486;12.074;2022-08-07T02:17:36;12.60;;;11.30;;
33858;SDS011;20156;47.486;12.074;2022-08-07T02:20:03;11.52;;;10.40;;
33858;SDS011;20156;47.486;12.074;2022-08-07T02:22:30;12.32;;;11.07;;
33858;SDS011;20156;47.486;12.074;2022-08-07T02:24:57;10.57;;;9.57;;
33858;SDS011;20156;47.486;12.074;2022-08-07T02:27:24;9.30;;;8.40;;
33858;SDS011;20156;47.486;12.074;2022-08-07T02:29:52;12.15;;;11.15;;
33858;SDS011;20156;47.486;12.074;2022-08-07T02:32:20;14.18;;;12.68;;
33858;SDS011;20156;47.486;12.074;2022-08-07T02:34:48;14.43;;;13.07;;
33858;SDS011;20156;47.486;12.074;2022-08-07T02:37:14;6.70;;;6.10;;
33858;SDS011;20156;47.486;12.074;2022-08-07T02:39:43;12.65;;;11.43;;
33858;SDS011;20156;47.486;12.074;2022-08-07T02:42:11;15.02;;;12.02;;
33858;SDS011;20156;47.486;12.074;2022-08-07T02:44:38;14.10;;;12.90;;
33858;SDS011;20156;47.486;12.074;2022-08-07T02:47:07;15.60;;;14.10;;
33858;SDS011;20156;47.486;12.074;2022-08-07T02:49:34;11.30;;;10.27;;
33858;SDS011;20156;47.486;12.074;2022-08-07T02:52:00;14.13;;;12.82;;
33858;SDS011;20156;47.486;12.074;2022-08-07T02:54:28;12.48;;;11.23;;
33858;SDS011;20156;47.486;12.074;2022-08-07T02:56:57;13.27;;;11.98;;
33858;SDS011;20156;47.486;12.074;2022-08-07T02:59:27;13.15;;;11.63;;
33858;SDS011;20156;47.486;12.074;2022-08-07T03:01:53;18.08;;;16.17;;
33858;SDS011;20156;47.486;12.074;2022-08-07T03:04:20;16.85;;;15.18;;
33858;SDS011;20156;47.486;12.074;2022-08-07T03:06:47;11.10;;;9.98;;
33858;SDS011;20156;47.486;12.074;2022-08-07T03:09:14;16.45;;;14.75;;
33858;SDS011;20156;47.486;12.074;2022-08-07T03:11:42;16.77;;;15.07;;
33858;SDS011;20156;47.486;12.074;2022-08-07T03:14:09;17.00;;;15.30;;
33858;SDS011;20156;47.486;12.074;2022-08-07T03:16:35;14.55;;;13.15;;
33858;SDS011;20156;47.486;12.074;2022-08-07T03:19:01;15.45;;;14.00;;
33858;SDS011;20156;47.486;12.074;2022-08-07T03:21:27;15.75;;;14.25;;
33858;SDS011;20156;47.486;12.074;2022-08-07T03:23:54;12.95;;;11.73;;
33858;SDS011;20156;47.486;12.074;2022-08-07T03:26:22;13.95;;;12.15;;
33858;SDS011;20156;47.486;12.074;2022-08-07T03:28:50;11.02;;;9.90;;
33858;SDS011;20156;47.486;12.074;2022-08-07T03:31:16;11.60;;;10.45;;
33858;SDS011;20156;47.486;12.074;2022-08-07T03:33:43;9.82;;;8.82;;
33858;SDS011;20156;47.486;12.074;2022-08-07T03:36:13;9.90;;;9.00;;
33858;SDS011;20156;47.486;12.074;2022-08-07T03:38:42;13.48;;;12.10;;
33858;SDS011;20156;47.486;12.074;2022-08-07T03:41:09;10.40;;;9.40;;
33858;SDS011;20156;47.486;12.074;2022-08-07T03:43:36;10.07;;;8.90;;
33858;SDS011;20156;47.486;12.074;2022-08-07T03:46:02;13.30;;;12.05;;
33858;SDS011;20156;47.486;12.074;2022-08-07T03:48:30;12.02;;;10.85;;
33858;SDS011;20156;47.486;12.074;2022-08-07T03:50:57;9.82;;;8.93;;
33858;SDS011;20156;47.486;12.074;2022-08-07T03:53:24;11.38;;;10.30;;
33858;SDS011;20156;47.486;12.074;2022-08-07T03:55:50;12.32;;;10.98;;
33858;SDS011;20156;47.486;12.074;2022-08-07T03:58:17;12.68;;;11.48;;
33858;SDS011;20156;47.486;12.074;2022-08-07T04:00:45;13.20;;;11.90;;
33858;SDS011;20156;47.486;12.074;2022-08-07T04:03:12;16.10;;;12.48;;
33858;SDS011;20156;47.486;12.074;2022-08-07T04:05:38;9.45;;;7.70;;
33858;SDS011;20156;47.486;12.074;2022-08-07T04:08:04;12.90;;;11.30;;
33858;SDS011;20156;47.486;12.074;2022-08-07T04:10:30;11.35;;;7.93;;
33858;SDS011;20156;47.486;12.074;2022-08-07T04:12:56;10.73;;;9.63;;
33858;SDS011;20156;47.486;12.074;2022-08-07T04:15:21;11.70;;;10.50;;
33858;SDS011;20156;47.486;12.074;2022-08-07T04:17:47;12.77;;;11.48;;
33858;SDS011;20156;47.486;12.074;2022-08-07T04:20:13;14.30;;;11.95;;
33858;SDS011;20156;47.486;12.074;2022-08-07T04:22:39;14.52;;;12.88;;
33858;SDS011;20156;47.486;12.074;2022-08-07T04:25:05;13.75;;;12.25;;
33858;SDS011;20156;47.486;12.074;2022-08-07T04:27:32;13.40;;;11.25;;
33858;SDS011;20156;47.486;12.074;2022-08-07T04:29:58;15.43;;;13.32;;
33858;SDS011;20156;47.486;12.074;2022-08-07T04:32:24;11.20;;;10.20;;
33858;SDS011;20156;47.486;12.074;2022-08-07T04:34:50;14.27;;;12.77;;
33858;SDS011;20156;47.486;12.074;2022-08-07T04:37:16;14.95;;;13.00;;
33858;SDS011;20156;47.486;12.074;2022-08-07T04:39:41;15.45;;;11.45;;
33858;SDS011;20156;47.486;12.074;2022-08-07T04:42:07;14.25;;;12.70;;
33858;SDS011;20156;47.486;12.074;2022-08-07T04:44:32;14.45;;;12.95;;
33858;SDS011;20156;47.486;12.074;2022-08-07T04:47:13;14.70;;;13.00;;
33858;SDS011;20156;47.486;12.074;2022-08-07T04:50:27;15.77;;;13.05;;
33858;SDS011;20156;47.486;12.074;2022-08-07T04:55:29;15.00;;;13.05;;
33858;SDS011;20156;47.486;12.074;2022-08-07T04:58:15;15.25;;;13.52;;
33858;SDS011;20156;47.486;12.074;2022-08-07T05:01:00;12.75;;;11.55;;
33858;SDS011;20156;47.486;12.074;2022-08-07T05:06:13;11.95;;;10.77;;
33858;SDS011;20156;47.486;12.074;2022-08-07T05:11:37;12.05;;;10.68;;
33858;SDS011;20156;47.486;12.074;2022-08-07T05:14:17;12.00;;;10.65;;
33858;SDS011;20156;47.486;12.074;2022-08-07T05:16:44;11.23;;;10.15;;
33858;SDS011;20156;47.486;12.074;2022-08-07T05:19:13;12.20;;;10.55;;
33858;SDS011;20156;47.486;12.074;2022-08-07T05:21:44;11.50;;;10.40;;
33858;SDS011;20156;47.486;12.074;2022-08-07T05:24:14;11.63;;;10.52;;
33858;SDS011;20156;47.486;12.074;2022-08-07T05:26:41;11.55;;;10.35;;
33858;SDS011;20156;47.486;12.074;2022-08-07T05:29:08;11.30;;;10.18;;
33858;SDS011;20156;47.486;12.074;2022-08-07T05:31:38;11.10;;;9.68;;
33858;SDS011;20156;47.486;12.074;2022-08-07T05:34:07;9.13;;;8.23;;
33858;SDS011;20156;47.486;12.074;2022-08-07T05:36:35;11.05;;;9.80;;
33858;SDS011;20156;47.486;12.074;2022-08-07T05:39:02;11.07;;;9.73;;
33858;SDS011;20156;47.486;12.074;2022-08-07T05:41:30;11.63;;;9.75;;
33858;SDS011;20156;47.486;12.074;2022-08-07T05:43:56;10.13;;;9.13;;
33858;SDS011;20156;47.486;12.074;2022-08-07T05:46:23;11.05;;;9.88;;
33858;SDS011;20156;47.486;12.074;2022-08-07T05:48:49;7.95;;;7.18;;
33858;SDS011;20156;47.486;12.074;2022-08-07T05:51:15;10.73;;;9.70;;
33858;SDS011;20156;47.486;12.074;2022-08-07T05:53:42;10.73;;;8.48;;
33858;SDS011;20156;47.486;12.074;2022-08-07T05:56:08;10.32;;;9.40;;
33858;SDS011;20156;47.486;12.074;2022-08-07T05:58:35;10.50;;;9.30;;
33858;SDS011;20156;47.486;12.074;2022-08-07T06:01:03;10.98;;;8.98;;
33858;SDS011;20156;47.486;12.074;2022-08-07T06:03:30;9.23;;;8.40;;
33858;SDS011;20156;47.486;12.074;2022-08-07T06:05:56;8.70;;;7.90;;
33858;SDS011;20156;47.486;12.074;2022-08-07T06:08:23;9.45;;;8.45;;
33858;SDS011;20156;47.486;12.074;2022-08-07T06:10:49;8.13;;;7.25;;
33858;SDS011;20156;47.486;12.074;2022-08-07T06:13:15;8.85;;;7.88;;
33858;SDS011;20156;47.486;12.074;2022-08-07T06:15:41;9.35;;;8.40;;
33858;SDS011;20156;47.486;12.074;2022-08-07T06:18:07;9.30;;;7.50;;
33858;SDS011;20156;47.486;12.074;2022-08-07T06:20:34;9.73;;;8.50;;
33858;SDS011;20156;47.486;12.074;2022-08-07T06:23:03;7.78;;;7.07;;
33858;SDS011;20156;47.486;12.074;2022-08-07T06:25:31;8.52;;;7.72;;
33858;SDS011;20156;47.486;12.074;2022-08-07T06:28:04;9.50;;;8.40;;
33858;SDS011;20156;47.486;12.074;2022-08-07T06:30:34;7.78;;;7.03;;
33858;SDS011;20156;47.486;12.074;2022-08-07T06:33:00;8.90;;;7.97;;
33858;SDS011;20156;47.486;12.074;2022-08-07T06:35:27;8.15;;;7.30;;
33858;SDS011;20156;47.486;12.074;2022-08-07T06:37:53;11.07;;;8.48;;
33858;SDS011;20156;47.486;12.074;2022-08-07T06:40:20;9.77;;;8.15;;
33858;SDS011;20156;47.486;12.074;2022-08-07T06:42:46;8.60;;;7.80;;
33858;SDS011;20156;47.486;12.074;2022-08-07T06:45:13;9.73;;;7.32;;
33858;SDS011;20156;47.486;12.074;2022-08-07T06:47:40;8.00;;;7.38;;
33858;SDS011;20156;47.486;12.074;2022-08-07T06:50:07;9.85;;;8.95;;
33858;SDS011;20156;47.486;12.074;2022-08-07T06:52:37;9.73;;;7.90;;
33858;SDS011;20156;47.486;12.074;2022-08-07T06:55:10;12.13;;;8.05;;
33858;SDS011;20156;47.486;12.074;2022-08-07T06:57:39;9.07;;;8.27;;
33858;SDS011;20156;47.486;12.074;2022-08-07T07:00:06;9.20;;;8.30;;
33858;SDS011;20156;47.486;12.074;2022-08-07T07:02:32;9.77;;;8.70;;
33858;SDS011;20156;47.486;12.074;2022-08-07T07:05:00;8.45;;;7.75;;
33858;SDS011;20156;47.486;12.074;2022-08-07T07:07:26;11.70;;;9.45;;
33858;SDS011;20156;47.486;12.074;2022-08-07T07:09:52;8.52;;;7.20;;
33858;SDS011;20156;47.486;12.074;2022-08-07T07:15:15;8.95;;;8.15;;
33858;SDS011;20156;47.486;12.074;2022-08-07T07:20:22;8.02;;;7.32;;
33858;SDS011;20156;47.486;12.074;2022-08-07T07:22:49;8.45;;;7.55;;
33858;SDS011;20156;47.486;12.074;2022-08-07T07:25:16;8.82;;;8.02;;
33858;SDS011;20156;47.486;12.074;2022-08-07T07:27:48;7.90;;;6.60;;
33858;SDS011;20156;47.486;12.074;2022-08-07T07:30:24;8.35;;;7.55;;
33858;SDS011;20156;47.486;12.074;2022-08-07T07:32:53;9.23;;;8.38;;
33858;SDS011;20156;47.486;12.074;2022-08-07T07:35:23;12.35;;;11.07;;
33858;SDS011;20156;47.486;12.074;2022-08-07T07:37:51;9.07;;;8.23;;
33858;SDS011;20156;47.486;12.074;2022-08-07T07:40:19;10.43;;;9.43;;
33858;SDS011;20156;47.486;12.074;2022-08-07T07:42:47;10.13;;;9.13;;
33858;SDS011;20156;47.486;12.074;2022-08-07T07:45:20;11.73;;;10.63;;
33858;SDS011;20156;47.486;12.074;2022-08-07T07:47:51;10.40;;;9.38;;
33858;SDS011;20156;47.486;12.074;2022-08-07T07:50:22;8.30;;;7.40;;
33858;SDS011;20156;47.486;12.074;2022-08-07T07:52:49;9.13;;;8.32;;
33858;SDS011;20156;47.486;12.074;2022-08-07T07:55:17;12.05;;;9.57;;
33858;SDS011;20156;47.486;12.074;2022-08-07T07:57:45;8.50;;;7.65;;
33858;SDS011;20156;47.486;12.074;2022-08-07T08:00:14;6.55;;;5.97;;
33858;SDS011;20156;47.486;12.074;2022-08-07T08:02:40;7.30;;;6.60;;
33858;SDS011;20156;47.486;12.074;2022-08-07T08:05:07;7.53;;;6.82;;
33858;SDS011;20156;47.486;12.074;2022-08-07T08:07:34;14.25;;;12.38;;
33858;SDS011;20156;47.486;12.074;2022-08-07T08:10:00;12.52;;;10.48;;
33858;SDS011;20156;47.486;12.074;2022-08-07T08:12:28;8.93;;;7.75;;
33858;SDS011;20156;47.486;12.074;2022-08-07T08:14:55;9.82;;;8.70;;
33858;SDS011;20156;47.486;12.074;2022-08-07T08:17:20;19.42;;;15.20;;
33858;SDS011;20156;47.486;12.074;2022-08-07T08:19:47;6.50;;;5.88;;
33858;SDS011;20156;47.486;12.074;2022-08-07T08:22:17;12.60;;;10.38;;
33858;SDS011;20156;47.486;12.074;2022-08-07T08:25:02;16.88;;;14.18;;
33858;SDS011;20156;47.486;12.074;2022-08-07T08:27:49;8.00;;;5.72;;
33858;SDS011;20156;47.486;12.074;2022-08-07T08:30:17;6.72;;;6.07;;
33858;SDS011;20156;47.486;12.074;2022-08-07T08:32:45;7.00;;;6.28;;
33858;SDS011;20156;47.486;12.074;2022-08-07T08:35:16;4.95;;;4.55;;
33858;SDS011;20156;47.486;12.074;2022-08-07T08:37:46;4.75;;;4.25;;
33858;SDS011;20156;47.486;12.074;2022-08-07T08:40:13;7.25;;;5.45;;
33858;SDS011;20156;47.486;12.074;2022-08-07T08:43:07;4.75;;;4.35;;
33858;SDS011;20156;47.486;12.074;2022-08-07T08:45:46;4.57;;;4.22;;
33858;SDS011;20156;47.486;12.074;2022-08-07T08:48:38;4.53;;;4.13;;
33858;SDS011;20156;47.486;12.074;2022-08-07T08:51:24;4.38;;;3.92;;
33858;SDS011;20156;47.486;12.074;2022-08-07T08:53:58;4.95;;;4.55;;
33858;SDS011;20156;47.486;12.074;2022-08-07T08:56:32;4.53;;;4.13;;
33858;SDS011;20156;47.486;12.074;2022-08-07T08:59:03;4.82;;;4.43;;
33858;SDS011;20156;47.486;12.074;2022-08-07T09:04:54;6.60;;;5.80;;
33858;SDS011;20156;47.486;12.074;2022-08-07T09:15:50;5.35;;;4.85;;
33858;SDS011;20156;47.486;12.074;2022-08-07T09:24:16;4.80;;;4.35;;
33858;SDS011;20156;47.486;12.074;2022-08-07T09:27:02;5.18;;;4.68;;
33858;SDS011;20156;47.486;12.074;2022-08-07T09:41:15;5.15;;;4.70;;
33858;SDS011;20156;47.486;12.074;2022-08-07T09:49:58;4.65;;;4.25;;
33858;SDS011;20156;47.486;12.074;2022-08-07T09:55:24;4.57;;;4.18;;
33858;SDS011;20156;47.486;12.074;2022-08-07T10:01:18;8.25;;;6.65;;
33858;SDS011;20156;47.486;12.074;2022-08-07T10:06:28;5.15;;;4.70;;
33858;SDS011;20156;47.486;12.074;2022-08-07T10:09:17;6.95;;;5.85;;
33858;SDS011;20156;47.486;12.074;2022-08-07T10:19:52;6.40;;;5.78;;
33858;SDS011;20156;47.486;12.074;2022-08-07T10:38:56;5.13;;;4.72;;
33858;SDS011;20156;47.486;12.074;2022-08-07T10:41:41;5.50;;;4.95;;
33858;SDS011;20156;47.486;12.074;2022-08-07T10:44:17;4.75;;;4.40;;
33858;SDS011;20156;47.486;12.074;2022-08-07T10:52:17;5.70;;;5.20;;
33858;SDS011;20156;47.486;12.074;2022-08-07T10:54:52;8.23;;;7.50;;
33858;SDS011;20156;47.486;12.074;2022-08-07T11:00:12;6.30;;;5.80;;
33858;SDS011;20156;47.486;12.074;2022-08-07T11:11:10;5.43;;;4.95;;
33858;SDS011;20156;47.486;12.074;2022-08-07T11:16:19;6.53;;;5.93;;
33858;SDS011;20156;47.486;12.074;2022-08-07T11:18:53;5.88;;;5.38;;
33858;SDS011;20156;47.486;12.074;2022-08-07T11:24:24;6.20;;;5.70;;
33858;SDS011;20156;47.486;12.074;2022-08-07T11:29:48;5.70;;;5.30;;
33858;SDS011;20156;47.486;12.074;2022-08-07T11:33:15;6.55;;;5.95;;
33858;SDS011;20156;47.486;12.074;2022-08-07T11:35:25;6.25;;;5.65;;
33858;SDS011;20156;47.486;12.074;2022-08-07T11:37:58;6.13;;;5.57;;
33858;SDS011;20156;47.486;12.074;2022-08-07T11:44:15;5.80;;;5.20;;
33858;SDS011;20156;47.486;12.074;2022-08-07T11:46:31;5.38;;;4.97;;
33858;SDS011;20156;47.486;12.074;2022-08-07T11:49:19;5.57;;;5.18;;
33858;SDS011;20156;47.486;12.074;2022-08-07T11:52:07;5.97;;;5.45;;
33858;SDS011;20156;47.486;12.074;2022-08-07T11:57:21;6.25;;;5.68;;
33858;SDS011;20156;47.486;12.074;2022-08-07T12:00:16;6.32;;;5.82;;
33858;SDS011;20156;47.486;12.074;2022-08-07T12:08:21;5.30;;;4.80;;
33858;SDS011;20156;47.486;12.074;2022-08-07T12:10:55;5.22;;;4.82;;
33858;SDS011;20156;47.486;12.074;2022-08-07T12:16:24;5.72;;;5.22;;
33858;SDS011;20156;47.486;12.074;2022-08-07T12:24:46;5.43;;;4.95;;
33858;SDS011;20156;47.486;12.074;2022-08-07T12:27:47;5.47;;;4.95;;
33858;SDS011;20156;47.486;12.074;2022-08-07T12:30:17;6.72;;;5.75;;
33858;SDS011;20156;47.486;12.074;2022-08-07T12:32:49;5.68;;;5.22;;
33858;SDS011;20156;47.486;12.074;2022-08-07T12:35:22;5.00;;;4.60;;
33858;SDS011;20156;47.486;12.074;2022-08-07T12:37:50;5.85;;;5.35;;
33858;SDS011;20156;47.486;12.074;2022-08-07T12:40:18;5.32;;;4.82;;
33858;SDS011;20156;47.486;12.074;2022-08-07T12:42:46;6.03;;;5.10;;
33858;SDS011;20156;47.486;12.074;2022-08-07T12:45:21;4.85;;;4.45;;
33858;SDS011;20156;47.486;12.074;2022-08-07T12:47:58;5.13;;;4.75;;
33858;SDS011;20156;47.486;12.074;2022-08-07T12:50:47;7.07;;;4.35;;
33858;SDS011;20156;47.486;12.074;2022-08-07T12:53:21;5.28;;;4.88;;
33858;SDS011;20156;47.486;12.074;2022-08-07T12:55:50;5.28;;;4.78;;
33858;SDS011;20156;47.486;12.074;2022-08-07T12:58:37;4.82;;;4.25;;
33858;SDS011;20156;47.486;12.074;2022-08-07T13:13:00;3.92;;;3.63;;
33858;SDS011;20156;47.486;12.074;2022-08-07T13:15:52;5.05;;;4.30;;
33858;SDS011;20156;47.486;12.074;2022-08-07T13:18:35;4.60;;;4.07;;
33858;SDS011;20156;47.486;12.074;2022-08-07T13:26:16;4.47;;;3.78;;
33858;SDS011;20156;47.486;12.074;2022-08-07T13:28:56;3.85;;;3.55;;
33858;SDS011;20156;47.486;12.074;2022-08-07T13:31:38;3.80;;;3.50;;
33858;SDS011;20156;47.486;12.074;2022-08-07T13:34:20;3.92;;;3.60;;
33858;SDS011;20156;47.486;12.074;2022-08-07T13:36:58;6.55;;;5.80;;
33858;SDS011;20156;47.486;12.074;2022-08-07T13:40:13;4.15;;;3.80;;
33858;SDS011;20156;47.486;12.074;2022-08-07T13:42:36;4.07;;;3.72;;
33858;SDS011;20156;47.486;12.074;2022-08-07T13:45:04;4.78;;;4.38;;
33858;SDS011;20156;47.486;12.074;2022-08-07T13:47:34;4.57;;;4.18;;
33858;SDS011;20156;47.486;12.074;2022-08-07T13:50:02;4.10;;;3.80;;
33858;SDS011;20156;47.486;12.074;2022-08-07T13:52:29;3.95;;;3.55;;
33858;SDS011;20156;47.486;12.074;2022-08-07T13:54:56;4.47;;;4.15;;
33858;SDS011;20156;47.486;12.074;2022-08-07T13:57:27;4.00;;;3.70;;
33858;SDS011;20156;47.486;12.074;2022-08-07T13:59:53;4.25;;;3.92;;
33858;SDS011;20156;47.486;12.074;2022-08-07T14:02:37;3.92;;;3.63;;
33858;SDS011;20156;47.486;12.074;2022-08-07T14:05:05;4.03;;;3.70;;
33858;SDS011;20156;47.486;12.074;2022-08-07T14:07:51;4.18;;;3.85;;
33858;SDS011;20156;47.486;12.074;2022-08-07T14:10:18;3.88;;;3.58;;
33858;SDS011;20156;47.486;12.074;2022-08-07T14:12:54;3.65;;;3.40;;
33858;SDS011;20156;47.486;12.074;2022-08-07T14:17:57;4.32;;;3.42;;
33858;SDS011;20156;47.486;12.074;2022-08-07T14:20:28;4.00;;;3.60;;
33858;SDS011;20156;47.486;12.074;2022-08-07T14:23:00;3.83;;;3.53;;
33858;SDS011;20156;47.486;12.074;2022-08-07T14:25:40;3.83;;;3.53;;
33858;SDS011;20156;47.486;12.074;2022-08-07T14:28:09;3.85;;;3.53;;
33858;SDS011;20156;47.486;12.074;2022-08-07T14:30:38;4.30;;;3.90;;
33858;SDS011;20156;47.486;12.074;2022-08-07T14:33:04;4.03;;;3.67;;
33858;SDS011;20156;47.486;12.074;2022-08-07T14:35:32;5.25;;;3.97;;
33858;SDS011;20156;47.486;12.074;2022-08-07T14:37:59;4.03;;;3.72;;
33858;SDS011;20156;47.486;12.074;2022-08-07T14:40:27;4.38;;;4.07;;
33858;SDS011;20156;47.486;12.074;2022-08-07T14:43:04;4.22;;;3.88;;
33858;SDS011;20156;47.486;12.074;2022-08-07T14:45:31;4.25;;;3.85;;
33858;SDS011;20156;47.486;12.074;2022-08-07T14:48:05;4.00;;;3.70;;
33858;SDS011;20156;47.486;12.074;2022-08-07T14:50:33;4.45;;;4.05;;
33858;SDS011;20156;47.486;12.074;2022-08-07T14:53:05;4.30;;;4.00;;
33858;SDS011;20156;47.486;12.074;2022-08-07T14:55:32;4.55;;;4.15;;
33858;SDS011;20156;47.486;12.074;2022-08-07T14:57:58;4.05;;;3.75;;
33858;SDS011;20156;47.486;12.074;2022-08-07T15:00:27;3.90;;;3.60;;
33858;SDS011;20156;47.486;12.074;2022-08-07T15:02:55;4.25;;;3.85;;
33858;SDS011;20156;47.486;12.074;2022-08-07T15:05:23;3.90;;;3.67;;
33858;SDS011;20156;47.486;12.074;2022-08-07T15:07:51;3.97;;;3.67;;
33858;SDS011;20156;47.486;12.074;2022-08-07T15:10:20;4.20;;;3.80;;
33858;SDS011;20156;47.486;12.074;2022-08-07T15:12:52;4.50;;;4.07;;
33858;SDS011;20156;47.486;12.074;2022-08-07T15:15:23;4.28;;;3.88;;
33858;SDS011;20156;47.486;12.074;2022-08-07T15:18:07;4.68;;;4.38;;
33858;SDS011;20156;47.486;12.074;2022-08-07T15:20:37;4.45;;;4.05;;
33858;SDS011;20156;47.486;12.074;2022-08-07T15:23:08;5.30;;;4.35;;
33858;SDS011;20156;47.486;12.074;2022-08-07T15:25:38;4.22;;;3.83;;
33858;SDS011;20156;47.486;12.074;2022-08-07T15:28:11;4.40;;;4.10;;
33858;SDS011;20156;47.486;12.074;2022-08-07T15:30:43;5.15;;;4.75;;
33858;SDS011;20156;47.486;12.074;2022-08-07T15:33:15;6.07;;;5.57;;
33858;SDS011;20156;47.486;12.074;2022-08-07T15:35:42;5.18;;;4.78;;
33858;SDS011;20156;47.486;12.074;2022-08-07T15:38:13;4.72;;;4.35;;
33858;SDS011;20156;47.486;12.074;2022-08-07T15:40:39;6.68;;;6.13;;
33858;SDS011;20156;47.486;12.074;2022-08-07T15:45:36;4.85;;;4.38;;
33858;SDS011;20156;47.486;12.074;2022-08-07T15:50:37;5.00;;;4.60;;
33858;SDS011;20156;47.486;12.074;2022-08-07T15:53:13;5.28;;;4.88;;
33858;SDS011;20156;47.486;12.074;2022-08-07T15:55:46;4.70;;;4.40;;
33858;SDS011;20156;47.486;12.074;2022-08-07T15:58:17;4.35;;;4.05;;
33858;SDS011;20156;47.486;12.074;2022-08-07T16:00:47;4.30;;;4.00;;
33858;SDS011;20156;47.486;12.074;2022-08-07T16:03:17;4.15;;;3.85;;
33858;SDS011;20156;47.486;12.074;2022-08-07T16:05:49;6.65;;;5.47;;
33858;SDS011;20156;47.486;12.074;2022-08-07T16:08:25;3.92;;;3.58;;
33858;SDS011;20156;47.486;12.074;2022-08-07T16:11:05;4.03;;;3.72;;
33858;SDS011;20156;47.486;12.074;2022-08-07T16:16:26;4.53;;;4.13;;
33858;SDS011;20156;47.486;12.074;2022-08-07T16:24:53;4.20;;;3.90;;
33858;SDS011;20156;47.486;12.074;2022-08-07T16:27:37;4.00;;;3.70;;
33858;SDS011;20156;47.486;12.074;2022-08-07T16:30:14;3.67;;;3.45;;
33858;SDS011;20156;47.486;12.074;2022-08-07T16:35:17;3.92;;;3.60;;
33858;SDS011;20156;47.486;12.074;2022-08-07T16:38:04;4.72;;;3.75;;
33858;SDS011;20156;47.486;12.074;2022-08-07T16:43:23;4.30;;;3.60;;
33858;SDS011;20156;47.486;12.074;2022-08-07T16:54:26;3.92;;;3.53;;
33858;SDS011;20156;47.486;12.074;2022-08-07T16:57:02;4.72;;;4.32;;
33858;SDS011;20156;47.486;12.074;2022-08-07T16:59:54;3.97;;;3.67;;
33858;SDS011;20156;47.486;12.074;2022-08-07T17:05:10;4.00;;;3.70;;
33858;SDS011;20156;47.486;12.074;2022-08-07T17:07:53;4.05;;;3.75;;
33858;SDS011;20156;47.486;12.074;2022-08-07T17:15:47;3.85;;;3.55;;
33858;SDS011;20156;47.486;12.074;2022-08-07T17:21:13;4.05;;;3.65;;
33858;SDS011;20156;47.486;12.074;2022-08-07T17:26:41;3.70;;;3.40;;
33858;SDS011;20156;47.486;12.074;2022-08-07T17:29:17;3.90;;;3.60;;
33858;SDS011;20156;47.486;12.074;2022-08-07T17:32:36;4.90;;;4.38;;
33858;SDS011;20156;47.486;12.074;2022-08-07T17:34:52;5.53;;;3.88;;
33858;SDS011;20156;47.486;12.074;2022-08-07T17:37:20;4.80;;;4.40;;
33858;SDS011;20156;47.486;12.074;2022-08-07T17:39:58;4.95;;;4.30;;
33858;SDS011;20156;47.486;12.074;2022-08-07T17:45:08;4.85;;;4.35;;
33858;SDS011;20156;47.486;12.074;2022-08-07T17:47:38;7.65;;;6.88;;
33858;SDS011;20156;47.486;12.074;2022-08-07T17:55:52;4.43;;;4.05;;
33858;SDS011;20156;47.486;12.074;2022-08-07T17:58:54;8.23;;;7.43;;
33858;SDS011;20156;47.486;12.074;2022-08-07T18:07:36;5.07;;;4.68;;
33858;SDS011;20156;47.486;12.074;2022-08-07T18:10:10;3.95;;;3.65;;